createdAt,value
2022-11-28T00:01:33.212Z,79.43
2022-11-28T00:04:00.095Z,79.45
2022-11-28T00:06:27.261Z,79.36
2022-11-28T00:08:54.846Z,79.46
2022-11-28T00:11:21.300Z,79.44
2022-11-28T00:13:47.705Z,79.07
2022-11-28T00:16:17.153Z,79.28
2022-11-28T00:18:44.265Z,79.65
2022-11-28T00:21:14.391Z,79.43
2022-11-28T00:23:42.576Z,79.54
2022-11-28T00:26:15.839Z,79.63
2022-11-28T00:28:42.654Z,79.37
2022-11-28T00:31:29.302Z,79.59
2022-11-28T00:33:55.985Z,79.39
2022-11-28T00:36:23.602Z,79.98
2022-11-28T00:38:50.875Z,79.73
2022-11-28T00:41:23.258Z,79.39
2022-11-28T00:43:51.007Z,79.67
2022-11-28T00:46:19.224Z,79.74
2022-11-28T00:48:46.057Z,79.90
2022-11-28T00:51:15.390Z,79.72
2022-11-28T00:53:44.394Z,79.88
2022-11-28T00:56:13.944Z,79.84
2022-11-28T00:58:41.059Z,80.02
2022-11-28T01:01:12.740Z,79.62
2022-11-28T01:03:40.690Z,79.90
2022-11-28T01:06:08.525Z,79.34
2022-11-28T01:08:34.926Z,80.08
2022-11-28T01:11:02.042Z,79.93
2022-11-28T01:13:28.769Z,79.88
2022-11-28T01:15:55.341Z,80.15
2022-11-28T01:18:21.786Z,80.08
2022-11-28T01:20:48.193Z,80.21
2022-11-28T01:23:14.593Z,80.15
2022-11-28T01:25:41.046Z,79.87
2022-11-28T01:28:07.435Z,79.99
2022-11-28T01:30:34.175Z,79.97
2022-11-28T01:33:00.685Z,79.93
2022-11-28T01:35:27.610Z,80.06
2022-11-28T01:37:53.992Z,80.13
2022-11-28T01:40:20.529Z,79.74
2022-11-28T01:42:46.945Z,80.19
2022-11-28T01:45:20.632Z,80.25
2022-11-28T01:47:49.715Z,80.13
2022-11-28T01:50:16.736Z,80.14
2022-11-28T01:52:46.879Z,80.17
2022-11-28T01:55:17.240Z,80.08
2022-11-28T01:57:43.764Z,80.19
2022-11-28T02:00:13.918Z,80.24
2022-11-28T02:02:58.623Z,80.14
2022-11-28T02:05:25.440Z,80.01
2022-11-28T02:07:52.675Z,80.11
2022-11-28T02:10:26.998Z,80.17
2022-11-28T02:13:15.250Z,80.36
2022-11-28T02:16:01.514Z,80.28
2022-11-28T02:18:52.358Z,80.45
2022-11-28T02:21:37.004Z,80.32
2022-11-28T02:24:31.281Z,80.46
2022-11-28T02:27:09.837Z,80.45
2022-11-28T02:30:01.771Z,80.51
2022-11-28T02:32:46.141Z,80.53
2022-11-28T02:35:21.691Z,80.57
2022-11-28T02:37:56.536Z,80.65
2022-11-28T02:40:29.355Z,80.41
2022-11-28T02:43:11.660Z,80.70
2022-11-28T02:45:57.919Z,80.74
2022-11-28T02:48:31.931Z,80.65
2022-11-28T02:51:31.431Z,80.81
2022-11-28T02:54:00.119Z,80.54
2022-11-28T02:56:26.759Z,80.64
2022-11-28T02:58:53.459Z,80.86
2022-11-28T03:01:27.858Z,80.68
2022-11-28T03:04:19.296Z,80.66
2022-11-28T03:07:00.804Z,80.96
2022-11-28T03:09:33.166Z,80.78
2022-11-28T03:12:27.826Z,80.80
2022-11-28T03:15:08.206Z,80.78
2022-11-28T03:17:53.062Z,80.81
2022-11-28T03:20:22.671Z,80.90
2022-11-28T03:23:07.928Z,80.86
2022-11-28T03:25:38.766Z,80.75
2022-11-28T03:28:14.662Z,80.68
2022-11-28T03:30:57.277Z,81.03
2022-11-28T03:33:27.813Z,80.87
2022-11-28T03:36:02.776Z,80.80
2022-11-28T03:38:36.185Z,80.99
2022-11-28T03:41:09.461Z,80.79
2022-11-28T03:43:43.090Z,81.11
2022-11-28T03:46:15.965Z,80.40
2022-11-28T03:48:47.359Z,80.79
2022-11-28T03:51:37.016Z,80.99
2022-11-28T03:54:10.542Z,81.07
2022-11-28T03:56:57.275Z,80.91
2022-11-28T03:59:32.475Z,80.92
2022-11-28T04:02:37.534Z,80.78
2022-11-28T04:05:06.652Z,80.99
2022-11-28T04:08:10.129Z,81.06
2022-11-28T04:11:01.185Z,80.92
2022-11-28T04:13:41.603Z,81.23
2022-11-28T04:16:18.915Z,81.26
2022-11-28T04:18:57.783Z,81.28
2022-11-28T04:21:35.717Z,81.02
2022-11-28T04:24:14.436Z,81.17
2022-11-28T04:26:45.788Z,81.25
2022-11-28T04:29:17.856Z,81.33
2022-11-28T04:31:46.219Z,81.36
2022-11-28T04:34:17.707Z,81.36
2022-11-28T04:36:45.910Z,81.02
2022-11-28T04:39:17.874Z,80.99
2022-11-28T04:41:51.507Z,81.31
2022-11-28T04:44:41.610Z,81.25
2022-11-28T04:47:08.430Z,81.35
2022-11-28T04:49:34.866Z,81.22
2022-11-28T04:52:20.218Z,81.17
2022-11-28T04:55:09.920Z,81.46
2022-11-28T04:57:40.504Z,81.20
2022-11-28T05:00:10.442Z,81.49
2022-11-28T05:02:40.971Z,81.15
2022-11-28T05:05:15.534Z,81.06
2022-11-28T05:07:42.209Z,81.07
2022-11-28T05:10:10.135Z,80.96
2022-11-28T05:12:36.643Z,81.02
2022-11-28T05:15:03.885Z,81.20
2022-11-28T05:17:30.266Z,81.20
2022-11-28T05:19:56.875Z,81.12
2022-11-28T05:22:23.373Z,81.03
2022-11-28T05:24:49.706Z,81.43
2022-11-28T05:27:16.269Z,81.14
2022-11-28T05:29:48.118Z,81.19
2022-11-28T05:32:18.234Z,81.05
2022-11-28T05:34:44.692Z,81.13
2022-11-28T05:37:11.318Z,81.23
2022-11-28T05:39:37.786Z,81.12
2022-11-28T05:42:04.396Z,80.93
2022-11-28T05:44:30.781Z,81.28
2022-11-28T05:46:57.171Z,81.38
2022-11-28T05:49:25.438Z,81.26
2022-11-28T05:51:51.772Z,81.33
2022-11-28T05:54:18.165Z,81.10
2022-11-28T05:56:44.661Z,81.36
2022-11-28T05:59:13.171Z,81.13
2022-11-28T06:01:39.738Z,81.12
2022-11-28T06:04:06.241Z,81.00
2022-11-28T06:06:34.927Z,80.98
2022-11-28T06:09:02.022Z,80.97
2022-11-28T06:11:30.467Z,80.82
2022-11-28T06:13:57.173Z,80.88
2022-11-28T06:16:26.935Z,81.26
2022-11-28T06:18:55.263Z,80.83
2022-11-28T06:21:22.899Z,80.98
2022-11-28T06:23:49.413Z,80.79
2022-11-28T06:26:18.668Z,81.12
2022-11-28T06:28:45.743Z,80.77
2022-11-28T06:31:18.640Z,80.99
2022-11-28T06:33:45.681Z,80.64
2022-11-28T06:36:14.130Z,80.83
2022-11-28T06:38:40.913Z,81.02
2022-11-28T06:41:09.963Z,81.10
2022-11-28T06:43:36.447Z,80.68
2022-11-28T06:46:03.170Z,80.68
2022-11-28T06:48:29.893Z,80.39
2022-11-28T06:51:03.288Z,80.80
2022-11-28T06:53:31.534Z,80.47
2022-11-28T06:55:58.547Z,80.60
2022-11-28T06:58:25.001Z,80.47
2022-11-28T07:00:51.862Z,80.65
2022-11-28T07:03:18.292Z,80.81
2022-11-28T07:05:44.714Z,80.78
2022-11-28T07:08:11.258Z,80.70
2022-11-28T07:10:37.663Z,80.28
2022-11-28T07:13:05.704Z,80.58
2022-11-28T07:15:32.319Z,80.62
2022-11-28T07:17:58.699Z,80.41
2022-11-28T07:20:25.047Z,80.46
2022-11-28T07:22:52.306Z,80.29
2022-11-28T07:25:18.757Z,80.20
2022-11-28T07:27:45.181Z,80.25
2022-11-28T07:30:11.756Z,80.74
2022-11-28T07:32:41.599Z,80.23
2022-11-28T07:35:08.912Z,80.28
2022-11-28T07:37:36.319Z,80.39
2022-11-28T07:40:03.902Z,80.06
2022-11-28T07:42:30.349Z,80.15
2022-11-28T07:44:56.843Z,80.17
2022-11-28T07:47:23.261Z,79.94
2022-11-28T07:49:49.757Z,79.88
2022-11-28T07:52:16.159Z,79.72
2022-11-28T07:54:42.645Z,79.92
2022-11-28T07:57:13.200Z,80.03
2022-11-28T07:59:40.754Z,79.96
2022-11-28T08:02:07.480Z,79.71
2022-11-28T08:04:35.849Z,79.46
2022-11-28T08:07:02.244Z,80.14
2022-11-28T08:09:29.379Z,79.77
2022-11-28T08:11:55.809Z,79.79
2022-11-28T08:14:22.187Z,79.95
2022-11-28T08:16:49.579Z,79.36
2022-11-28T08:19:16.058Z,79.73
2022-11-28T08:21:43.522Z,79.50
2022-11-28T08:24:11.442Z,79.39
2022-11-28T08:26:38.211Z,79.43
2022-11-28T08:29:07.677Z,79.37
2022-11-28T08:31:37.168Z,79.57
2022-11-28T08:34:06.986Z,79.15
2022-11-28T08:36:34.727Z,79.35
2022-11-28T08:39:22.993Z,79.23
2022-11-28T08:41:49.805Z,79.45
2022-11-28T08:44:16.239Z,78.57
2022-11-28T08:46:42.719Z,78.91
2022-11-28T08:49:09.227Z,79.15
2022-11-28T08:51:36.653Z,79.11
2022-11-28T08:54:03.371Z,79.19
2022-11-28T08:56:29.795Z,79.25
2022-11-28T08:58:56.280Z,79.32
2022-11-28T09:01:24.994Z,78.94
2022-11-28T09:03:53.737Z,78.97
2022-11-28T09:06:21.202Z,79.08
2022-11-28T09:08:48.875Z,78.92
2022-11-28T09:11:19.455Z,78.67
2022-11-28T09:13:46.128Z,78.58
2022-11-28T09:16:13.532Z,78.83
2022-11-28T09:18:40.584Z,78.89
2022-11-28T09:21:11.862Z,78.85
2022-11-28T09:23:41.237Z,78.84
2022-11-28T09:26:17.561Z,78.57
2022-11-28T09:28:45.357Z,78.71
2022-11-28T09:31:13.228Z,78.93
2022-11-28T09:33:42.798Z,78.67
2022-11-28T09:36:12.035Z,78.83
2022-11-28T09:38:39.132Z,78.48
2022-11-28T09:41:30.492Z,78.83
2022-11-28T09:44:03.253Z,78.43
2022-11-28T09:46:35.924Z,78.33
2022-11-28T09:49:12.526Z,78.11
2022-11-28T09:52:27.051Z,78.21
2022-11-28T09:55:02.039Z,78.31
2022-11-28T09:57:39.031Z,78.17
2022-11-28T10:00:11.199Z,78.20
2022-11-28T10:02:55.953Z,78.75
2022-11-28T10:05:35.381Z,78.00
2022-11-28T10:08:19.246Z,77.90
2022-11-28T10:11:04.630Z,78.27
2022-11-28T10:14:08.146Z,77.98
2022-11-28T10:17:04.620Z,78.15
2022-11-28T10:19:57.748Z,78.28
2022-11-28T10:22:38.911Z,78.00
2022-11-28T10:25:16.474Z,78.29
2022-11-28T10:27:43.091Z,78.03
2022-11-28T10:30:20.328Z,78.19
2022-11-28T10:32:57.874Z,78.31
2022-11-28T10:35:40.668Z,77.47
2022-11-28T10:38:13.047Z,78.04
2022-11-28T10:41:12.896Z,77.29
2022-11-28T10:44:00.493Z,77.73
2022-11-28T10:46:51.362Z,77.84
2022-11-28T10:49:50.590Z,77.49
2022-11-28T10:52:37.780Z,77.15
2022-11-28T10:55:23.787Z,77.54
2022-11-28T10:57:56.302Z,77.51
2022-11-28T11:00:22.937Z,77.35
2022-11-28T11:02:52.910Z,77.86
2022-11-28T11:05:31.473Z,77.18
2022-11-28T11:08:24.547Z,77.02
2022-11-28T11:11:19.991Z,77.63
2022-11-28T11:14:04.110Z,77.19
2022-11-28T11:16:53.253Z,77.43
2022-11-28T11:19:25.586Z,77.13
2022-11-28T11:22:24.122Z,77.44
2022-11-28T11:25:13.413Z,77.09
2022-11-28T11:27:54.489Z,77.53
2022-11-28T11:30:31.370Z,77.51
2022-11-28T11:33:00.791Z,77.60
2022-11-28T11:35:31.773Z,77.67
2022-11-28T11:38:17.466Z,77.01
2022-11-28T11:40:44.407Z,77.89
2022-11-28T11:43:26.783Z,77.29
2022-11-28T11:46:10.365Z,78.14
2022-11-28T11:48:38.005Z,77.93
2022-11-28T11:51:05.157Z,77.51
2022-11-28T11:53:31.686Z,77.73
2022-11-28T11:56:02.240Z,77.86
2022-11-28T11:58:40.285Z,78.16
2022-11-28T12:01:11.534Z,77.75
2022-11-28T12:03:56.788Z,77.95
2022-11-28T12:06:31.309Z,78.00
2022-11-28T12:09:13.226Z,77.40
2022-11-28T12:11:47.045Z,77.35
2022-11-28T12:14:32.785Z,78.08
2022-11-28T12:17:47.823Z,78.42
2022-11-28T12:20:22.117Z,78.60
2022-11-28T12:23:17.039Z,78.56
2022-11-28T12:26:25.026Z,78.43
2022-11-28T12:29:30.530Z,78.43
2022-11-28T12:32:19.466Z,78.25
2022-11-28T12:34:52.521Z,78.48
2022-11-28T12:38:09.442Z,77.98
2022-11-28T12:40:47.551Z,78.91
2022-11-28T12:43:20.182Z,78.30
2022-11-28T12:46:05.526Z,78.90
2022-11-28T12:48:59.911Z,78.88
2022-11-28T12:51:26.336Z,78.79
2022-11-28T12:54:16.034Z,79.06
2022-11-28T12:56:59.096Z,79.20
2022-11-28T12:59:40.182Z,78.90
2022-11-28T13:02:26.063Z,79.50
2022-11-28T13:05:11.484Z,79.46
2022-11-28T13:07:43.261Z,79.85
2022-11-28T13:10:39.336Z,79.42
2022-11-28T13:13:39.972Z,80.10
2022-11-28T13:16:15.921Z,80.06
2022-11-28T13:18:50.652Z,80.06
2022-11-28T13:21:37.156Z,79.55
2022-11-28T13:24:16.517Z,80.27
2022-11-28T13:26:47.592Z,80.20
2022-11-28T13:29:17.633Z,79.81
2022-11-28T13:32:01.903Z,80.20
2022-11-28T13:34:29.967Z,80.23
2022-11-28T13:40:12.315Z,80.53
2022-11-28T13:43:08.151Z,80.83
2022-11-28T13:45:39.319Z,80.73
2022-11-28T13:49:05.987Z,80.57
2022-11-28T13:51:30.535Z,80.95
2022-11-28T13:54:16.949Z,80.80
2022-11-28T13:57:07.722Z,80.89
2022-11-28T13:59:34.881Z,80.68
2022-11-28T14:02:04.876Z,81.12
2022-11-28T14:04:32.750Z,81.21
2022-11-28T14:07:05.470Z,81.08
2022-11-28T14:09:49.587Z,81.49
2022-11-28T14:12:22.037Z,80.82
2022-11-28T14:14:58.081Z,81.78
2022-11-28T14:17:41.484Z,81.42
2022-11-28T14:20:27.114Z,81.92
2022-11-28T14:23:16.377Z,82.25
2022-11-28T14:25:49.011Z,81.49
2022-11-28T14:28:27.123Z,81.97
2022-11-28T14:31:24.610Z,81.79
2022-11-28T14:33:59.563Z,82.33
2022-11-28T14:36:29.732Z,81.42
2022-11-28T14:39:16.596Z,82.06
2022-11-28T14:42:05.329Z,81.93
2022-11-28T14:44:55.992Z,82.21
2022-11-28T14:47:29.405Z,82.16
2022-11-28T14:50:05.785Z,82.77
2022-11-28T14:52:39.627Z,82.60
2022-11-28T14:55:12.773Z,81.84
2022-11-28T14:57:54.133Z,82.46
2022-11-28T15:00:56.088Z,82.49
2022-11-28T15:03:40.634Z,82.85
2022-11-28T15:06:37.421Z,82.74
2022-11-28T15:09:49.269Z,82.98
2022-11-28T15:13:09.630Z,82.99
2022-11-28T15:16:33.172Z,82.47
2022-11-28T15:20:39.882Z,83.44
2022-11-28T15:23:33.705Z,82.95
2022-11-28T15:34:26.323Z,83.41
2022-11-28T15:43:46.482Z,83.81
2022-11-28T15:46:38.390Z,83.34
2022-11-28T15:49:55.859Z,83.83
2022-11-28T15:53:43.406Z,83.44
2022-11-28T16:04:11.332Z,83.84
2022-11-28T16:06:41.399Z,84.07
2022-11-28T16:09:25.943Z,84.14
2022-11-28T16:11:54.262Z,84.39
2022-11-28T16:14:31.553Z,84.05
2022-11-28T16:16:59.337Z,84.00
2022-11-28T16:19:30.718Z,84.47
2022-11-28T16:22:00.966Z,84.29
2022-11-28T16:24:38.692Z,84.39
2022-11-28T16:27:06.513Z,84.07
2022-11-28T16:29:35.652Z,84.83
2022-11-28T16:32:08.610Z,84.71
2022-11-28T16:34:49.386Z,84.61
2022-11-28T16:37:27.629Z,84.60
2022-11-28T16:40:13.434Z,84.67
2022-11-28T16:42:40.616Z,84.83
2022-11-28T16:45:33.976Z,84.96
2022-11-28T16:52:24.994Z,84.85
2022-11-28T16:55:12.987Z,85.19
2022-11-28T16:58:20.900Z,85.40
2022-11-28T17:01:45.333Z,85.09
2022-11-28T17:16:34.926Z,85.73
2022-11-28T17:19:30.039Z,86.15
2022-11-28T17:29:01.009Z,86.01
2022-11-28T17:45:22.833Z,86.02
2022-11-28T17:47:49.772Z,86.26
2022-11-28T17:50:21.697Z,86.57
2022-11-28T17:52:48.416Z,86.67
2022-11-28T17:55:18.484Z,86.81
2022-11-28T17:57:45.213Z,86.73
2022-11-28T18:00:15.258Z,86.73
2022-11-28T18:02:42.206Z,86.68
2022-11-28T18:05:09.494Z,86.73
2022-11-28T18:07:36.117Z,86.76
2022-11-28T18:10:05.668Z,86.74
2022-11-28T18:12:32.516Z,86.67
2022-11-28T18:15:03.448Z,86.46
2022-11-28T18:17:30.209Z,86.95
2022-11-28T18:19:58.026Z,86.79
2022-11-28T18:22:24.973Z,87.01
2022-11-28T18:24:51.607Z,87.18
2022-11-28T18:27:18.243Z,86.96
2022-11-28T18:29:47.210Z,87.47
2022-11-28T18:32:13.738Z,87.44
2022-11-28T18:34:40.468Z,87.21
2022-11-28T18:37:07.324Z,87.24
2022-11-28T18:39:35.346Z,87.25
2022-11-28T18:42:02.057Z,87.36
2022-11-28T18:44:28.644Z,87.44
2022-11-28T18:46:55.222Z,87.68
2022-11-28T18:49:22.286Z,87.37
2022-11-28T18:51:48.932Z,87.93
2022-11-28T18:54:21.307Z,87.44
2022-11-28T18:56:48.995Z,87.53
2022-11-28T18:59:15.650Z,88.05
2022-11-28T19:01:43.635Z,87.78
2022-11-28T19:04:12.756Z,88.06
2022-11-28T19:06:40.870Z,87.58
2022-11-28T19:09:09.917Z,87.87
2022-11-28T19:11:36.700Z,88.02
2022-11-28T19:14:04.251Z,88.22
2022-11-28T19:16:33.333Z,88.20
2022-11-28T19:19:01.127Z,88.26
2022-11-28T19:21:31.817Z,87.72
2022-11-28T19:23:59.480Z,87.96
2022-11-28T19:26:27.514Z,87.83
2022-11-28T19:28:54.923Z,87.84
2022-11-28T19:31:26.904Z,88.15
2022-11-28T19:34:02.448Z,88.00
2022-11-28T19:36:30.483Z,88.15
2022-11-28T19:38:57.979Z,88.16
2022-11-28T19:41:24.909Z,88.00
2022-11-28T19:43:51.809Z,88.12
2022-11-28T19:46:19.302Z,88.42
2022-11-28T19:48:46.518Z,88.73
2022-11-28T19:51:16.265Z,88.59
2022-11-28T19:53:44.077Z,88.46
2022-11-28T19:56:18.249Z,88.31
2022-11-28T19:58:46.026Z,88.38
2022-11-28T20:01:20.693Z,88.54
2022-11-28T20:03:49.225Z,88.64
2022-11-28T20:06:24.004Z,88.53
2022-11-28T20:08:52.067Z,88.63
2022-11-28T20:11:22.353Z,88.93
2022-11-28T20:13:50.324Z,88.73
2022-11-28T20:16:22.853Z,88.84
2022-11-28T20:18:52.372Z,88.57
2022-11-28T20:21:20.358Z,88.70
2022-11-28T20:23:49.545Z,88.37
2022-11-28T20:26:18.436Z,88.96
2022-11-28T20:28:46.018Z,88.93
2022-11-28T20:31:18.478Z,89.01
2022-11-28T20:33:45.250Z,89.19
2022-11-28T20:36:14.093Z,89.18
2022-11-28T20:38:40.920Z,88.92
2022-11-28T20:41:09.988Z,89.19
2022-11-28T20:43:39.215Z,89.12
2022-11-28T20:46:09.060Z,89.19
2022-11-28T20:48:36.369Z,89.29
2022-11-28T20:51:03.142Z,89.53
2022-11-28T20:53:31.526Z,89.08
2022-11-28T20:56:03.121Z,89.38
2022-11-28T20:58:31.195Z,88.91
2022-11-28T21:00:58.197Z,89.27
2022-11-28T21:03:25.758Z,89.61
2022-11-28T21:05:57.825Z,89.97
2022-11-28T21:08:31.430Z,89.35
2022-11-28T21:10:58.009Z,89.51
2022-11-28T21:13:24.670Z,89.57
2022-11-28T21:15:53.384Z,89.20
2022-11-28T21:18:20.265Z,89.90
2022-11-28T21:20:47.293Z,89.33
2022-11-28T21:23:16.414Z,89.18
2022-11-28T21:25:44.212Z,89.82
2022-11-28T21:28:11.861Z,89.43
2022-11-28T21:30:45.019Z,89.59
2022-11-28T21:33:14.705Z,89.92
2022-11-28T21:35:41.463Z,89.66
2022-11-28T21:38:08.340Z,89.81
2022-11-28T21:40:34.918Z,89.61
2022-11-28T21:43:02.017Z,89.87
2022-11-28T21:45:28.512Z,89.80
2022-11-28T21:47:55.111Z,89.95
2022-11-28T21:50:25.266Z,90.53
2022-11-28T21:52:52.001Z,90.21
2022-11-28T21:55:18.890Z,90.13
2022-11-28T21:57:45.814Z,90.15
2022-11-28T22:00:31.321Z,90.00
2022-11-28T22:03:05.853Z,90.10
2022-11-28T22:05:34.578Z,90.16
2022-11-28T22:08:01.520Z,89.86
2022-11-28T22:10:28.465Z,90.02
2022-11-28T22:12:58.280Z,90.31
2022-11-28T22:15:25.129Z,90.42
2022-11-28T22:17:51.670Z,90.72
2022-11-28T22:20:18.523Z,89.91
2022-11-28T22:22:47.589Z,90.55
2022-11-28T22:25:14.184Z,90.46
2022-11-28T22:27:41.117Z,90.34
2022-11-28T22:30:08.494Z,90.32
2022-11-28T22:32:35.098Z,90.60
2022-11-28T22:35:02.732Z,90.81
2022-11-28T22:37:29.364Z,90.28
2022-11-28T22:39:55.972Z,90.69
2022-11-28T22:42:22.386Z,90.76
2022-11-28T22:44:48.794Z,90.53
2022-11-28T22:47:15.387Z,90.29
2022-11-28T22:49:42.010Z,90.56
2022-11-28T22:52:08.646Z,90.86
2022-11-28T22:54:35.192Z,90.35
2022-11-28T22:57:01.703Z,91.04
2022-11-28T22:59:29.484Z,90.90
2022-11-28T23:01:56.227Z,90.77
2022-11-28T23:04:22.898Z,90.55
2022-11-28T23:06:49.460Z,90.72
2022-11-28T23:09:16.067Z,90.71
2022-11-28T23:11:43.055Z,90.89
2022-11-28T23:14:12.868Z,90.59
2022-11-28T23:16:40.473Z,90.77
2022-11-28T23:19:17.636Z,90.89
2022-11-28T23:21:47.333Z,90.85
2022-11-28T23:24:20.328Z,90.87
2022-11-28T23:26:48.165Z,90.79
2022-11-28T23:29:15.643Z,91.02
2022-11-28T23:31:43.593Z,90.96
2022-11-28T23:34:10.730Z,91.37
2022-11-28T23:36:42.833Z,91.21
2022-11-28T23:39:18.470Z,91.32
2022-11-28T23:41:45.743Z,91.07
2022-11-28T23:44:13.902Z,91.21
2022-11-28T23:46:40.985Z,91.35
2022-11-28T23:49:08.277Z,91.12
2022-11-28T23:51:35.822Z,90.80
2022-11-28T23:54:02.406Z,91.36
2022-11-28T23:56:31.208Z,91.61
2022-11-28T23:59:01.027Z,91.15
